createdAt,value
2022-09-22T00:01:33.505Z,100607.28
2022-09-22T00:04:07.273Z,100600.34
2022-09-22T00:06:52.147Z,100599.41
2022-09-22T00:09:21.556Z,100592.34
2022-09-22T00:11:51.932Z,100588.28
2022-09-22T00:14:28.213Z,100599.69
2022-09-22T00:16:59.243Z,100600.69
2022-09-22T00:19:33.157Z,100599.34
2022-09-22T00:22:01.213Z,100600.28
2022-09-22T00:24:29.300Z,100599.34
2022-09-22T00:26:58.623Z,100607.34
2022-09-22T00:29:28.264Z,100609.16
2022-09-22T00:31:57.304Z,100607.34
2022-09-22T00:34:27.326Z,100611.59
2022-09-22T00:36:55.083Z,100617.25
2022-09-22T00:39:22.726Z,100617.25
2022-09-22T00:41:52.291Z,100623.53
2022-09-22T00:44:28.798Z,100622.69
2022-09-22T00:47:14.721Z,100629.34
2022-09-22T00:50:10.294Z,100618.25
2022-09-22T00:52:59.815Z,100622.34
2022-09-22T00:55:35.063Z,100622.78
2022-09-22T00:58:06.371Z,100625.22
2022-09-22T01:00:35.330Z,100634.19
2022-09-22T01:03:06.875Z,100631.28
2022-09-22T01:05:37.059Z,100640.56
2022-09-22T01:08:05.139Z,100642.13
2022-09-22T01:10:33.166Z,100650.06
2022-09-22T01:13:22.926Z,100644.88
2022-09-22T01:16:17.189Z,100639.81
2022-09-22T01:18:59.486Z,100637.19
2022-09-22T01:21:51.815Z,100637.19
2022-09-22T01:24:43.603Z,100637.59
2022-09-22T01:27:16.991Z,100650.47
2022-09-22T01:29:47.218Z,100650.25
2022-09-22T01:32:32.281Z,100651.81
2022-09-22T01:35:24.588Z,100652.59
2022-09-22T01:38:24.909Z,100661.19
2022-09-22T01:41:06.759Z,100664.09
2022-09-22T01:43:43.159Z,100664.78
2022-09-22T01:46:34.968Z,100665.91
2022-09-22T01:49:07.803Z,100662.50
2022-09-22T01:51:42.829Z,100660.63
2022-09-22T01:54:16.928Z,100664.22
2022-09-22T01:56:48.748Z,100665.03
2022-09-22T01:59:20.546Z,100667.16
2022-09-22T02:01:55.190Z,100657.72
2022-09-22T02:04:36.007Z,100668.19
2022-09-22T02:07:14.409Z,100666.41
2022-09-22T02:09:42.763Z,100669.28
2022-09-22T02:12:10.279Z,100672.03
2022-09-22T02:14:37.908Z,100677.22
2022-09-22T02:17:08.862Z,100671.16
2022-09-22T02:19:38.221Z,100679.94
2022-09-22T02:22:07.235Z,100667.34
2022-09-22T02:24:40.622Z,100672.97
2022-09-22T02:27:36.722Z,100676.31
2022-09-22T02:30:08.389Z,100678.25
2022-09-22T02:32:38.537Z,100669.22
2022-09-22T02:35:07.792Z,100669.22
2022-09-22T02:37:53.056Z,100674.16
2022-09-22T02:40:26.800Z,100673.44
2022-09-22T02:43:18.938Z,100673.75
2022-09-22T02:45:55.599Z,100679.09
2022-09-22T02:48:26.580Z,100677.50
2022-09-22T02:50:54.652Z,100679.50
2022-09-22T02:53:22.178Z,100676.84
2022-09-22T02:55:50.104Z,100677.25
2022-09-22T02:58:17.868Z,100681.06
2022-09-22T03:00:45.653Z,100675.69
2022-09-22T03:03:13.512Z,100672.13
2022-09-22T03:05:41.346Z,100671.38
2022-09-22T03:08:09.408Z,100668.94
2022-09-22T03:10:37.033Z,100670.72
2022-09-22T03:13:20.740Z,100664.50
2022-09-22T03:15:49.853Z,100670.34
2022-09-22T03:18:17.527Z,100660.22
2022-09-22T03:20:45.898Z,100659.31
2022-09-22T03:23:13.522Z,100657.59
2022-09-22T03:25:41.284Z,100663.41
2022-09-22T03:28:10.545Z,100662.78
2022-09-22T03:30:40.493Z,100667.38
2022-09-22T03:33:11.954Z,100663.97
2022-09-22T03:35:40.284Z,100668.63
2022-09-22T03:38:07.768Z,100665.59
2022-09-22T03:40:37.085Z,100662.09
2022-09-22T03:43:04.703Z,100664.75
2022-09-22T03:45:32.714Z,100667.38
2022-09-22T03:48:00.536Z,100667.00
2022-09-22T03:50:28.499Z,100669.84
2022-09-22T03:52:57.912Z,100674.19
2022-09-22T03:55:25.689Z,100670.66
2022-09-22T03:57:53.207Z,100673.13
2022-09-22T04:00:20.831Z,100673.91
2022-09-22T04:02:48.374Z,100678.25
2022-09-22T04:05:16.354Z,100665.97
2022-09-22T04:07:45.494Z,100672.81
2022-09-22T04:10:13.937Z,100669.16
2022-09-22T04:12:41.423Z,100662.09
2022-09-22T04:15:09.781Z,100664.19
2022-09-22T04:17:37.457Z,100670.94
2022-09-22T04:20:06.522Z,100667.53
2022-09-22T04:22:34.714Z,100672.53
2022-09-22T04:25:03.050Z,100673.91
2022-09-22T04:27:31.111Z,100684.16
2022-09-22T04:30:00.862Z,100682.84
2022-09-22T04:32:28.467Z,100681.66
2022-09-22T04:34:56.010Z,100682.13
2022-09-22T04:37:23.535Z,100672.50
2022-09-22T04:39:54.108Z,100684.44
2022-09-22T04:42:22.231Z,100691.44
2022-09-22T04:44:50.064Z,100693.22
2022-09-22T04:47:20.659Z,100696.22
2022-09-22T04:49:48.238Z,100692.22
2022-09-22T04:52:15.895Z,100700.75
2022-09-22T04:54:43.445Z,100699.50
2022-09-22T04:57:11.319Z,100704.53
2022-09-22T04:59:38.892Z,100708.81
2022-09-22T05:02:06.799Z,100694.97
2022-09-22T05:04:34.413Z,100697.31
2022-09-22T05:07:01.920Z,100707.25
2022-09-22T05:09:30.070Z,100704.22
2022-09-22T05:12:01.341Z,100708.31
2022-09-22T05:14:29.748Z,100704.41
2022-09-22T05:16:57.441Z,100702.94
2022-09-22T05:19:25.170Z,100712.50
2022-09-22T05:21:53.205Z,100712.94
2022-09-22T05:24:20.896Z,100720.63
2022-09-22T05:26:48.592Z,100726.59
2022-09-22T05:29:18.366Z,100733.25
2022-09-22T05:31:49.212Z,100735.47
2022-09-22T05:34:16.899Z,100738.03
2022-09-22T05:36:44.731Z,100745.91
2022-09-22T05:39:12.314Z,100744.72
2022-09-22T05:41:40.038Z,100751.19
2022-09-22T05:44:07.742Z,100748.91
2022-09-22T05:46:35.367Z,100758.38
2022-09-22T05:49:03.092Z,100754.88
2022-09-22T05:51:30.954Z,100755.81
2022-09-22T05:53:58.450Z,100751.03
2022-09-22T05:56:26.067Z,100748.47
2022-09-22T05:58:53.595Z,100749.56
2022-09-22T06:01:21.217Z,100755.50
2022-09-22T06:03:48.742Z,100754.97
2022-09-22T06:06:16.299Z,100748.03
2022-09-22T06:08:47.905Z,100743.34
2022-09-22T06:11:16.788Z,100754.22
2022-09-22T06:13:46.181Z,100756.31
2022-09-22T06:16:13.756Z,100762.97
2022-09-22T06:18:41.275Z,100756.63
2022-09-22T06:21:08.820Z,100759.19
2022-09-22T06:23:42.033Z,100764.16
2022-09-22T06:26:10.902Z,100758.97
2022-09-22T06:28:38.426Z,100766.22
2022-09-22T06:31:06.966Z,100760.22
2022-09-22T06:33:35.651Z,100757.69
2022-09-22T06:36:07.215Z,100754.94
2022-09-22T06:38:34.963Z,100760.88
2022-09-22T06:41:04.329Z,100762.13
2022-09-22T06:43:33.055Z,100755.59
2022-09-22T06:46:02.856Z,100758.56
2022-09-22T06:48:32.081Z,100754.94
2022-09-22T06:50:59.802Z,100755.78
2022-09-22T06:53:27.770Z,100756.81
2022-09-22T06:55:55.626Z,100751.13
2022-09-22T06:58:23.178Z,100743.91
2022-09-22T07:00:51.418Z,100748.59
2022-09-22T07:03:22.080Z,100747.66
2022-09-22T07:05:54.183Z,100753.03
2022-09-22T07:08:24.049Z,100753.25
2022-09-22T07:11:03.871Z,100750.03
2022-09-22T07:13:32.914Z,100751.81
2022-09-22T07:16:03.298Z,100756.28
2022-09-22T07:18:31.341Z,100757.06
2022-09-22T07:21:07.094Z,100751.25
2022-09-22T07:24:10.435Z,100756.25
2022-09-22T07:26:39.477Z,100750.19
2022-09-22T07:29:11.813Z,100753.50
2022-09-22T07:31:41.571Z,100751.16
2022-09-22T07:34:11.469Z,100755.44
2022-09-22T07:36:40.094Z,100756.13
2022-09-22T07:39:11.126Z,100746.16
2022-09-22T07:41:43.752Z,100746.94
2022-09-22T07:44:32.666Z,100740.94
2022-09-22T07:47:01.290Z,100745.59
2022-09-22T07:49:29.510Z,100744.19
2022-09-22T07:51:57.810Z,100743.91
2022-09-22T07:54:27.249Z,100747.88
2022-09-22T07:57:06.771Z,100735.66
2022-09-22T07:59:36.278Z,100745.13
2022-09-22T08:02:03.913Z,100741.22
2022-09-22T08:04:33.647Z,100738.88
2022-09-22T08:07:01.506Z,100730.72
2022-09-22T08:09:31.798Z,100731.97
2022-09-22T08:12:00.570Z,100727.59
2022-09-22T08:14:29.902Z,100733.19
2022-09-22T08:16:57.909Z,100726.00
2022-09-22T08:19:25.549Z,100722.13
2022-09-22T08:21:56.463Z,100710.06
2022-09-22T08:24:24.260Z,100717.00
2022-09-22T08:26:54.273Z,100712.22
2022-09-22T08:29:22.953Z,100708.34
2022-09-22T08:31:51.429Z,100710.50
2022-09-22T08:34:20.313Z,100699.69
2022-09-22T08:36:48.529Z,100696.34
2022-09-22T08:39:18.063Z,100687.06
2022-09-22T08:41:48.798Z,100682.00
2022-09-22T08:44:42.826Z,100686.19
2022-09-22T08:47:37.947Z,100676.34
2022-09-22T08:50:37.388Z,100671.16
2022-09-22T08:53:10.107Z,100661.28
2022-09-22T08:55:43.266Z,100662.03
2022-09-22T08:58:32.277Z,100664.28
2022-09-22T09:01:21.445Z,100661.75
2022-09-22T09:03:56.190Z,100650.03
2022-09-22T09:06:23.734Z,100654.63
2022-09-22T09:09:18.988Z,100651.13
2022-09-22T09:12:18.904Z,100647.91
2022-09-22T09:15:02.765Z,100646.41
2022-09-22T09:17:35.785Z,100639.28
2022-09-22T09:20:09.017Z,100638.13
2022-09-22T09:22:44.983Z,100643.56
2022-09-22T09:25:37.414Z,100635.59
2022-09-22T09:28:10.131Z,100647.06
2022-09-22T09:30:51.961Z,100640.91
2022-09-22T09:33:41.911Z,100638.75
2022-09-22T09:36:14.174Z,100641.50
2022-09-22T09:38:49.513Z,100644.28
2022-09-22T09:41:23.990Z,100645.13
2022-09-22T09:43:54.490Z,100645.34
2022-09-22T09:46:27.970Z,100657.50
2022-09-22T09:49:10.672Z,100658.31
2022-09-22T09:51:42.438Z,100652.66
2022-09-22T09:54:17.027Z,100651.75
2022-09-22T09:57:27.537Z,100643.34
2022-09-22T10:00:33.651Z,100644.22
2022-09-22T10:03:05.787Z,100642.47
2022-09-22T10:05:37.680Z,100642.00
2022-09-22T10:08:21.154Z,100641.94
2022-09-22T10:10:58.314Z,100635.31
2022-09-22T10:13:34.208Z,100626.63
2022-09-22T10:16:20.063Z,100627.41
2022-09-22T10:18:49.685Z,100620.31
2022-09-22T10:21:24.650Z,100612.00
2022-09-22T10:23:54.869Z,100607.13
2022-09-22T10:26:29.433Z,100608.50
2022-09-22T10:29:18.365Z,100612.97
2022-09-22T10:32:05.254Z,100620.63
2022-09-22T10:34:42.064Z,100621.19
2022-09-22T10:37:12.460Z,100618.75
2022-09-22T10:39:54.476Z,100620.41
2022-09-22T10:42:44.080Z,100612.31
2022-09-22T10:45:18.440Z,100616.81
2022-09-22T10:47:59.357Z,100606.78
2022-09-22T10:50:31.396Z,100616.38
2022-09-22T10:53:27.499Z,100612.00
2022-09-22T10:56:16.681Z,100601.06
2022-09-22T10:59:06.047Z,100590.56
2022-09-22T11:01:39.796Z,100581.00
2022-09-22T11:04:23.338Z,100583.41
2022-09-22T11:07:33.108Z,100585.72
2022-09-22T11:10:33.262Z,100586.06
2022-09-22T11:13:11.874Z,100582.06
2022-09-22T11:16:05.677Z,100573.16
2022-09-22T11:19:02.851Z,100564.16
2022-09-22T11:21:50.950Z,100572.50
2022-09-22T11:24:45.576Z,100566.06
2022-09-22T11:27:29.090Z,100568.13
2022-09-22T11:30:11.564Z,100562.31
2022-09-22T11:32:45.531Z,100560.13
2022-09-22T11:35:35.276Z,100556.00
2022-09-22T11:38:09.571Z,100566.44
2022-09-22T11:40:44.751Z,100563.16
2022-09-22T11:43:48.904Z,100570.06
2022-09-22T11:46:16.461Z,100573.94
2022-09-22T11:49:20.979Z,100570.03
2022-09-22T11:52:07.361Z,100555.00
2022-09-22T11:55:00.998Z,100555.50
2022-09-22T11:57:34.829Z,100556.09
2022-09-22T12:00:13.060Z,100562.81
2022-09-22T12:02:48.790Z,100558.66
2022-09-22T12:05:30.210Z,100558.66
2022-09-22T12:08:01.916Z,100567.91
2022-09-22T12:10:40.920Z,100575.41
2022-09-22T12:13:20.404Z,100573.00
2022-09-22T12:16:13.480Z,100569.34
2022-09-22T12:19:07.831Z,100566.94
2022-09-22T12:21:42.553Z,100569.34
2022-09-22T12:24:12.065Z,100577.56
2022-09-22T12:26:43.223Z,100574.53
2022-09-22T12:29:13.895Z,100560.69
2022-09-22T12:31:44.002Z,100560.06
2022-09-22T12:34:20.111Z,100566.00
2022-09-22T12:36:51.274Z,100561.28
2022-09-22T12:39:22.050Z,100562.13
2022-09-22T12:42:04.926Z,100558.72
2022-09-22T12:44:45.881Z,100557.00
2022-09-22T12:47:42.995Z,100552.44
2022-09-22T12:50:13.275Z,100557.41
2022-09-22T12:52:40.802Z,100555.00
2022-09-22T12:55:29.390Z,100567.34
2022-09-22T12:57:59.435Z,100566.66
2022-09-22T13:00:41.241Z,100567.09
2022-09-22T13:03:38.136Z,100573.41
2022-09-22T13:06:22.021Z,100565.03
2022-09-22T13:08:55.552Z,100562.00
2022-09-22T13:12:01.783Z,100561.16
2022-09-22T13:14:57.205Z,100569.50
2022-09-22T13:17:36.600Z,100569.66
2022-09-22T13:20:20.767Z,100580.56
2022-09-22T13:22:48.554Z,100577.31
2022-09-22T13:25:22.224Z,100571.75
2022-09-22T13:28:09.973Z,100568.97
2022-09-22T13:30:39.952Z,100568.13
2022-09-22T13:33:22.166Z,100570.81
2022-09-22T13:36:03.806Z,100577.09
2022-09-22T13:38:45.141Z,100578.81
2022-09-22T13:41:19.019Z,100571.66
2022-09-22T13:43:55.023Z,100572.00
2022-09-22T13:46:39.603Z,100573.69
2022-09-22T13:49:12.333Z,100572.22
2022-09-22T13:51:40.336Z,100578.28
2022-09-22T13:54:18.703Z,100568.25
2022-09-22T13:56:47.096Z,100561.72
2022-09-22T13:59:17.316Z,100571.53
2022-09-22T14:01:52.841Z,100570.19
2022-09-22T14:04:26.735Z,100578.31
2022-09-22T14:06:59.373Z,100576.84
2022-09-22T14:09:27.870Z,100574.19
2022-09-22T14:11:58.044Z,100565.81
2022-09-22T14:14:27.240Z,100566.06
2022-09-22T14:16:58.081Z,100561.09
2022-09-22T14:19:44.799Z,100551.63
2022-09-22T14:22:32.029Z,100559.03
2022-09-22T14:25:03.691Z,100551.28
2022-09-22T14:27:38.376Z,100549.94
2022-09-22T14:30:06.938Z,100558.94
2022-09-22T14:32:39.401Z,100558.06
2022-09-22T14:35:20.599Z,100555.41
2022-09-22T14:37:51.871Z,100551.06
2022-09-22T14:40:23.092Z,100554.06
2022-09-22T14:43:21.571Z,100560.38
2022-09-22T14:46:07.370Z,100556.84
2022-09-22T14:48:36.846Z,100554.94
2022-09-22T14:51:15.642Z,100556.25
2022-09-22T14:53:48.595Z,100557.81
2022-09-22T14:56:29.110Z,100559.91
2022-09-22T14:59:37.501Z,100560.38
2022-09-22T15:02:32.517Z,100565.97
2022-09-22T15:05:03.534Z,100564.47
2022-09-22T15:07:36.035Z,100574.16
2022-09-22T15:10:08.120Z,100577.09
2022-09-22T15:12:47.473Z,100566.28
2022-09-22T15:15:17.274Z,100573.50
2022-09-22T15:18:09.139Z,100571.47
2022-09-22T15:20:50.123Z,100571.59
2022-09-22T15:23:26.006Z,100573.50
2022-09-22T15:25:55.398Z,100571.06
2022-09-22T15:28:25.338Z,100566.56
2022-09-22T15:30:53.648Z,100574.69
2022-09-22T15:33:21.672Z,100573.94
2022-09-22T15:36:02.186Z,100575.53
2022-09-22T15:38:32.837Z,100577.22
2022-09-22T15:41:00.464Z,100579.91
2022-09-22T15:43:31.031Z,100570.44
2022-09-22T15:46:03.882Z,100571.66
2022-09-22T15:48:37.104Z,100570.16
2022-09-22T15:51:15.995Z,100573.81
2022-09-22T15:53:43.729Z,100574.78
2022-09-22T15:56:15.301Z,100579.25
2022-09-22T15:58:44.069Z,100586.41
2022-09-22T16:01:11.890Z,100586.50
2022-09-22T16:03:41.425Z,100582.03
2022-09-22T16:06:16.594Z,100582.38
2022-09-22T16:08:55.228Z,100577.16
2022-09-22T16:11:29.635Z,100582.25
2022-09-22T16:14:01.172Z,100582.50
2022-09-22T16:16:31.289Z,100582.84
2022-09-22T16:18:59.360Z,100588.41
2022-09-22T16:21:35.227Z,100587.66
2022-09-22T16:24:09.378Z,100590.19
2022-09-22T16:26:40.091Z,100589.53
2022-09-22T16:29:08.842Z,100591.66
2022-09-22T16:31:37.498Z,100592.50
2022-09-22T16:34:06.885Z,100600.75
2022-09-22T16:36:36.248Z,100597.44
2022-09-22T16:39:05.490Z,100594.28
2022-09-22T16:41:34.551Z,100604.53
2022-09-22T16:44:02.817Z,100598.59
2022-09-22T16:46:31.640Z,100602.63
2022-09-22T16:49:05.425Z,100602.75
2022-09-22T16:51:36.442Z,100602.75
2022-09-22T16:54:06.343Z,100605.22
2022-09-22T16:56:36.199Z,100606.50
2022-09-22T16:59:04.613Z,100600.56
2022-09-22T17:01:38.212Z,100610.81
2022-09-22T17:04:07.779Z,100615.09
2022-09-22T17:06:37.759Z,100614.88
2022-09-22T17:09:07.323Z,100617.66
2022-09-22T17:11:40.296Z,100616.19
2022-09-22T17:14:12.675Z,100615.34
2022-09-22T17:16:45.748Z,100615.34
2022-09-22T17:19:18.548Z,100617.25
2022-09-22T17:21:48.529Z,100625.69
2022-09-22T17:24:16.462Z,100617.91
2022-09-22T17:26:47.927Z,100618.75
2022-09-22T17:29:18.527Z,100618.75
2022-09-22T17:31:49.576Z,100618.88
2022-09-22T17:34:17.337Z,100623.47
2022-09-22T17:36:45.132Z,100629.81
2022-09-22T17:39:12.910Z,100619.59
2022-09-22T17:41:47.120Z,100630.16
2022-09-22T17:44:21.328Z,100627.94
2022-09-22T17:47:09.351Z,100636.03
2022-09-22T17:49:58.320Z,100635.06
2022-09-22T17:52:32.123Z,100627.69
2022-09-22T17:55:08.224Z,100625.28
2022-09-22T17:57:38.523Z,100621.00
2022-09-22T18:00:11.220Z,100631.72
2022-09-22T18:02:39.376Z,100627.38
2022-09-22T18:05:10.075Z,100621.00
2022-09-22T18:07:40.297Z,100630.25
2022-09-22T18:10:14.488Z,100628.88
2022-09-22T18:12:42.951Z,100632.16
2022-09-22T18:15:13.398Z,100634.50
2022-09-22T18:17:42.685Z,100626.09
2022-09-22T18:20:18.401Z,100622.03
2022-09-22T18:22:48.234Z,100614.31
2022-09-22T18:25:19.634Z,100616.53
2022-09-22T18:27:50.947Z,100623.88
2022-09-22T18:30:19.624Z,100626.34
2022-09-22T18:32:48.269Z,100618.00
2022-09-22T18:35:16.168Z,100623.88
2022-09-22T18:37:43.827Z,100624.94
2022-09-22T18:40:12.682Z,100630.03
2022-09-22T18:42:41.631Z,100626.44
2022-09-22T18:45:11.109Z,100622.72
2022-09-22T18:47:41.003Z,100626.00
2022-09-22T18:50:09.487Z,100621.09
2022-09-22T18:52:42.661Z,100627.06
2022-09-22T18:55:12.008Z,100625.38
2022-09-22T18:57:40.643Z,100621.34
2022-09-22T19:00:09.720Z,100619.41
2022-09-22T19:02:37.725Z,100621.22
2022-09-22T19:05:05.820Z,100619.53
2022-09-22T19:07:43.055Z,100619.63
2022-09-22T19:10:15.086Z,100628.56
2022-09-22T19:12:42.983Z,100626.53
2022-09-22T19:15:13.993Z,100616.88
2022-09-22T19:17:46.674Z,100617.09
2022-09-22T19:20:23.950Z,100612.69
2022-09-22T19:22:52.732Z,100614.50
2022-09-22T19:25:22.243Z,100618.88
2022-09-22T19:27:52.618Z,100617.94
2022-09-22T19:30:24.928Z,100623.69
2022-09-22T19:32:55.129Z,100625.56
2022-09-22T19:35:23.088Z,100629.19
2022-09-22T19:37:52.015Z,100630.16
2022-09-22T19:40:20.509Z,100626.22
2022-09-22T19:42:49.949Z,100621.56
2022-09-22T19:45:19.176Z,100623.25
2022-09-22T19:47:47.763Z,100619.94
2022-09-22T19:50:15.512Z,100613.78
2022-09-22T19:52:43.489Z,100617.09
2022-09-22T19:55:11.680Z,100616.97
2022-09-22T19:57:41.804Z,100615.41
2022-09-22T20:00:17.725Z,100614.31
2022-09-22T20:02:45.791Z,100612.63
2022-09-22T20:05:22.155Z,100614.75
2022-09-22T20:07:50.876Z,100614.22
2022-09-22T20:10:22.600Z,100609.84
2022-09-22T20:12:53.795Z,100614.03
2022-09-22T20:15:21.531Z,100608.91
2022-09-22T20:17:49.234Z,100607.84
2022-09-22T20:20:22.706Z,100607.75
2022-09-22T20:23:00.300Z,100611.78
2022-09-22T20:25:33.172Z,100616.25
2022-09-22T20:28:01.305Z,100616.25
2022-09-22T20:30:28.843Z,100603.16
2022-09-22T20:32:56.511Z,100608.69
2022-09-22T20:35:24.296Z,100603.69
2022-09-22T20:37:59.357Z,100609.00
2022-09-22T20:40:27.340Z,100600.72
2022-09-22T20:42:54.882Z,100598.19
2022-09-22T20:45:25.439Z,100603.06
2022-09-22T20:47:53.054Z,100594.31
2022-09-22T20:50:21.484Z,100594.13
2022-09-22T20:52:49.067Z,100597.09
2022-09-22T20:55:17.235Z,100605.84
2022-09-22T20:57:44.781Z,100601.88
2022-09-22T21:00:15.366Z,100600.38
2022-09-22T21:02:43.537Z,100598.88
2022-09-22T21:05:11.316Z,100602.72
2022-09-22T21:07:39.256Z,100603.69
2022-09-22T21:10:28.382Z,100600.91
2022-09-22T21:12:56.529Z,100603.03
2022-09-22T21:15:24.381Z,100604.50
2022-09-22T21:17:52.951Z,100606.31
2022-09-22T21:20:20.502Z,100594.19
2022-09-22T21:22:48.900Z,100598.75
2022-09-22T21:25:16.679Z,100596.22
2022-09-22T21:27:45.263Z,100594.47
2022-09-22T21:30:13.477Z,100597.91
2022-09-22T21:32:41.003Z,100593.31
2022-09-22T21:35:09.430Z,100592.38
2022-09-22T21:37:37.173Z,100588.75
2022-09-22T21:40:05.273Z,100594.28
2022-09-22T21:42:33.188Z,100590.44
2022-09-22T21:45:01.223Z,100592.81
2022-09-22T21:47:28.750Z,100588.03
2022-09-22T21:49:56.476Z,100582.06
2022-09-22T21:52:24.079Z,100578.69
2022-09-22T21:54:51.683Z,100574.34
2022-09-22T21:57:19.196Z,100575.69
2022-09-22T21:59:47.003Z,100576.78
2022-09-22T22:02:14.530Z,100570.50
2022-09-22T22:04:42.325Z,100570.16
2022-09-22T22:07:11.965Z,100562.47
2022-09-22T22:09:39.570Z,100557.09
2022-09-22T22:12:07.288Z,100569.00
2022-09-22T22:14:35.054Z,100565.28
2022-09-22T22:17:02.615Z,100570.81
2022-09-22T22:19:30.336Z,100566.34
2022-09-22T22:21:57.828Z,100562.72
2022-09-22T22:24:31.079Z,100554.34
2022-09-22T22:27:01.426Z,100553.63
2022-09-22T22:29:34.839Z,100550.53
2022-09-22T22:32:05.134Z,100560.41
2022-09-22T22:34:33.304Z,100557.94
2022-09-22T22:37:01.234Z,100566.84
2022-09-22T22:39:29.986Z,100557.28
2022-09-22T22:41:57.557Z,100560.97
2022-09-22T22:44:25.277Z,100565.25
2022-09-22T22:46:53.306Z,100565.53
2022-09-22T22:49:20.888Z,100557.88
2022-09-22T22:51:49.484Z,100559.34
2022-09-22T22:54:17.225Z,100560.84
2022-09-22T22:56:48.904Z,100562.72
2022-09-22T22:59:18.631Z,100562.28
2022-09-22T23:01:46.314Z,100560.25
2022-09-22T23:04:16.758Z,100552.19
2022-09-22T23:06:49.063Z,100545.19
2022-09-22T23:09:17.427Z,100547.84
2022-09-22T23:11:46.487Z,100553.13
2022-09-22T23:14:16.364Z,100560.13
2022-09-22T23:16:46.897Z,100560.34
2022-09-22T23:19:18.575Z,100545.03
2022-09-22T23:21:46.982Z,100542.69
2022-09-22T23:24:16.560Z,100539.28
2022-09-22T23:26:45.468Z,100536.72
2022-09-22T23:29:13.595Z,100537.78
2022-09-22T23:31:41.289Z,100533.72
2022-09-22T23:34:09.142Z,100538.41
2022-09-22T23:36:37.473Z,100535.28
2022-09-22T23:39:05.185Z,100532.91
2022-09-22T23:41:34.686Z,100531.50
2022-09-22T23:44:03.631Z,100545.63
2022-09-22T23:46:32.355Z,100532.84
2022-09-22T23:49:00.433Z,100529.25
2022-09-22T23:51:30.999Z,100528.84
2022-09-22T23:53:58.846Z,100518.91
2022-09-22T23:56:26.676Z,100518.16
2022-09-22T23:58:54.710Z,100511.34
